Time;durP1;ratioP1;P1;durP2;ratioP2;P2;SDS_P1;SDS_P2;PMS_P1;PMS_P2;Temp;Humidity;BMP_temperature;BMP_pressure;BME280_temperature;BME280_humidity;BME280_pressure;Samples;Min_cycle;Max_cycle;Signal;HPM_P1;HPM_P2
2021/07/30 00:00:25;;;;;;;19.07;18.07;;;;;;;;;;5033220;28;20817;-65
2021/07/30 00:02:52;;;;;;;19.90;18.80;;;;;;;;;;5052793;28;20462;-65
2021/07/30 00:05:19;;;;;;;19.13;17.93;;;;;;;;;;5045454;28;20464;-65
2021/07/30 00:07:47;;;;;;;19.20;18.00;;;;;;;;;;5048889;28;20475;-63
2021/07/30 00:10:14;;;;;;;19.60;18.50;;;;;;;;;;5048264;28;20476;-65
2021/07/30 00:12:42;;;;;;;18.73;17.70;;;;;;;;;;5035047;28;20461;-64
2021/07/30 00:15:09;;;;;;;19.70;18.47;;;;;;;;;;5032182;28;20487;-65
2021/07/30 00:17:36;;;;;;;20.40;18.93;;;;;;;;;;5063152;22;20539;-70
2021/07/30 00:20:04;;;;;;;19.47;18.17;;;;;;;;;;5070505;28;20454;-69
2021/07/30 00:22:31;;;;;;;19.97;18.53;;;;;;;;;;5068934;28;20447;-70
2021/07/30 00:25:00;;;;;;;19.83;18.60;;;;;;;;;;5062012;28;20450;-69
2021/07/30 00:27:27;;;;;;;19.60;18.50;;;;;;;;;;5051180;28;20475;-69
2021/07/30 00:29:54;;;;;;;19.60;18.30;;;;;;;;;;5052328;28;20860;-70
2021/07/30 00:32:21;;;;;;;20.37;19.07;;;;;;;;;;5050592;28;20456;-70
2021/07/30 00:34:49;;;;;;;19.57;18.43;;;;;;;;;;5049754;28;20455;-70
2021/07/30 00:37:16;;;;;;;19.50;18.30;;;;;;;;;;5051293;28;21020;-69
2021/07/30 00:39:43;;;;;;;18.77;17.77;;;;;;;;;;5052170;28;20447;-69
2021/07/30 00:42:11;;;;;;;19.50;18.40;;;;;;;;;;5044993;28;20820;-69
2021/07/30 00:44:38;;;;;;;20.20;19.17;;;;;;;;;;5042404;28;20452;-69
2021/07/30 00:47:06;;;;;;;19.60;18.50;;;;;;;;;;5047055;28;21009;-70
2021/07/30 00:49:33;;;;;;;19.87;18.77;;;;;;;;;;5043104;28;20461;-70
2021/07/30 00:52:00;;;;;;;19.50;18.50;;;;;;;;;;5046189;28;20981;-70
2021/07/30 00:54:27;;;;;;;20.37;18.97;;;;;;;;;;5052113;28;20451;-71
2021/07/30 00:56:55;;;;;;;20.03;18.93;;;;;;;;;;5050979;28;20538;-70
2021/07/30 00:59:24;;;;;;;20.33;19.03;;;;;;;;;;5051595;28;20968;-71
2021/07/30 01:01:51;;;;;;;19.57;18.47;;;;;;;;;;5033238;28;20914;-71
2021/07/30 01:04:19;;;;;;;20.17;19.07;;;;;;;;;;5032660;28;20890;-71
2021/07/30 01:06:46;;;;;;;20.57;19.30;;;;;;;;;;5045420;28;20558;-71
2021/07/30 01:09:13;;;;;;;20.30;19.10;;;;;;;;;;5054756;28;20451;-71
2021/07/30 01:11:40;;;;;;;20.07;18.87;;;;;;;;;;5055205;28;20861;-70
2021/07/30 01:14:09;;;;;;;19.87;18.70;;;;;;;;;;5055251;28;20462;-69
2021/07/30 01:16:39;;;;;;;19.60;18.47;;;;;;;;;;5055767;28;20956;-70
2021/07/30 01:19:06;;;;;;;20.03;18.83;;;;;;;;;;5055269;28;20448;-70
2021/07/30 01:21:35;;;;;;;29.03;20.43;;;;;;;;;;5055006;28;20922;-70
2021/07/30 01:24:03;;;;;;;20.47;18.87;;;;;;;;;;5054896;28;20455;-69
2021/07/30 01:26:30;;;;;;;20.37;18.80;;;;;;;;;;5054867;28;20996;-69
2021/07/30 01:28:58;;;;;;;20.23;18.93;;;;;;;;;;5055071;28;20455;-69
2021/07/30 01:31:25;;;;;;;19.67;18.47;;;;;;;;;;5054113;28;20498;-69
2021/07/30 01:33:52;;;;;;;19.70;18.50;;;;;;;;;;5042731;28;20544;-68
2021/07/30 01:36:19;;;;;;;19.90;18.60;;;;;;;;;;5044257;28;20470;-69
2021/07/30 01:38:46;;;;;;;20.63;19.13;;;;;;;;;;5055019;28;20447;-69
2021/07/30 01:41:15;;;;;;;19.90;18.70;;;;;;;;;;5054051;28;20450;-68
2021/07/30 01:43:43;;;;;;;20.40;19.20;;;;;;;;;;5053131;28;20444;-68
2021/07/30 01:46:10;;;;;;;19.97;18.67;;;;;;;;;;5051102;28;20474;-68
2021/07/30 01:48:37;;;;;;;19.13;18.10;;;;;;;;;;5054722;28;20456;-69
2021/07/30 01:51:05;;;;;;;19.20;18.10;;;;;;;;;;5054030;28;20480;-69
2021/07/30 01:53:32;;;;;;;19.33;18.33;;;;;;;;;;5045063;28;20445;-69
2021/07/30 01:56:03;;;;;;;19.67;18.47;;;;;;;;;;5037615;28;20476;-69
2021/07/30 01:58:32;;;;;;;19.30;18.27;;;;;;;;;;5040934;28;20484;-69
2021/07/30 02:00:59;;;;;;;19.37;18.10;;;;;;;;;;5054233;28;20452;-69
2021/07/30 02:03:26;;;;;;;19.10;18.03;;;;;;;;;;5053690;28;20831;-69
2021/07/30 02:05:53;;;;;;;19.70;18.23;;;;;;;;;;5054172;28;20444;-69
2021/07/30 02:08:20;;;;;;;19.60;18.33;;;;;;;;;;5053743;28;20451;-69
2021/07/30 02:10:47;;;;;;;19.20;18.20;;;;;;;;;;5053845;28;20498;-69
2021/07/30 02:16:00;;;;;;;19.93;18.60;;;;;;;;;;5033904;28;20448;-69
2021/07/30 02:18:27;;;;;;;19.93;18.57;;;;;;;;;;5034145;28;20452;-69
2021/07/30 02:20:54;;;;;;;19.93;18.73;;;;;;;;;;5033988;28;20445;-69
2021/07/30 02:23:22;;;;;;;19.40;18.20;;;;;;;;;;5034611;28;20444;-69
2021/07/30 02:25:49;;;;;;;18.83;17.83;;;;;;;;;;5051183;28;20452;-69
2021/07/30 02:28:16;;;;;;;19.23;18.17;;;;;;;;;;5034053;28;20452;-70
2021/07/30 02:30:43;;;;;;;20.10;18.60;;;;;;;;;;5039201;28;20484;-71
2021/07/30 02:33:11;;;;;;;19.70;18.30;;;;;;;;;;5054436;28;20450;-70
2021/07/30 02:35:38;;;;;;;19.93;18.73;;;;;;;;;;5053435;28;20478;-70
2021/07/30 02:38:05;;;;;;;19.80;18.70;;;;;;;;;;5053094;28;20451;-69
2021/07/30 02:40:34;;;;;;;19.90;18.80;;;;;;;;;;5051576;28;20452;-69
2021/07/30 02:43:01;;;;;;;20.33;18.70;;;;;;;;;;5053503;28;20513;-69
2021/07/30 02:45:28;;;;;;;20.73;19.20;;;;;;;;;;5052898;28;20454;-69
2021/07/30 02:47:55;;;;;;;19.57;18.50;;;;;;;;;;5053169;28;20456;-69
2021/07/30 02:50:24;;;;;;;20.20;18.67;;;;;;;;;;5052303;28;20513;-69
2021/07/30 02:52:51;;;;;;;20.37;18.87;;;;;;;;;;5051985;28;20467;-69
2021/07/30 02:55:18;;;;;;;20.30;19.10;;;;;;;;;;5051900;28;20459;-69
2021/07/30 02:57:45;;;;;;;19.23;18.13;;;;;;;;;;5052345;28;20848;-69
2021/07/30 03:00:13;;;;;;;19.83;18.73;;;;;;;;;;5052662;28;20525;-69
2021/07/30 03:02:40;;;;;;;20.03;18.93;;;;;;;;;;5052940;28;20447;-69
2021/07/30 03:05:08;;;;;;;20.33;19.13;;;;;;;;;;5052495;28;20659;-70
2021/07/30 03:07:36;;;;;;;20.70;19.30;;;;;;;;;;5053165;28;20467;-70
2021/07/30 03:10:04;;;;;;;20.07;18.70;;;;;;;;;;5047123;28;20449;-70
2021/07/30 03:12:31;;;;;;;19.90;18.60;;;;;;;;;;5047479;28;20443;-70
2021/07/30 03:14:58;;;;;;;20.20;18.63;;;;;;;;;;5052274;28;20931;-70
2021/07/30 03:17:25;;;;;;;20.67;19.23;;;;;;;;;;5053158;28;20482;-70
2021/07/30 03:19:52;;;;;;;20.00;18.60;;;;;;;;;;5052141;28;20444;-70
2021/07/30 03:22:19;;;;;;;20.40;19.20;;;;;;;;;;5053200;28;20439;-71
2021/07/30 03:24:48;;;;;;;21.20;19.80;;;;;;;;;;5050568;28;20455;-71
2021/07/30 03:27:15;;;;;;;20.73;19.43;;;;;;;;;;5052336;28;20467;-71
2021/07/30 03:29:42;;;;;;;20.60;19.50;;;;;;;;;;5052216;28;20944;-70
2021/07/30 03:32:09;;;;;;;20.03;18.83;;;;;;;;;;5035257;28;20480;-71
2021/07/30 03:34:37;;;;;;;20.13;19.03;;;;;;;;;;5035863;28;20462;-71
2021/07/30 03:37:05;;;;;;;21.23;19.40;;;;;;;;;;5033081;28;20478;-70
2021/07/30 03:39:32;;;;;;;20.87;19.57;;;;;;;;;;5039804;28;20454;-70
2021/07/30 03:42:00;;;;;;;21.10;19.70;;;;;;;;;;5034387;28;20465;-69
2021/07/30 03:44:27;;;;;;;20.93;19.63;;;;;;;;;;5033242;28;20455;-69
2021/07/30 03:46:55;;;;;;;21.20;19.90;;;;;;;;;;5051577;28;20474;-69
2021/07/30 03:49:22;;;;;;;21.60;19.90;;;;;;;;;;5051865;28;20444;-70
2021/07/30 03:51:49;;;;;;;21.07;19.67;;;;;;;;;;5034043;28;20476;-69
2021/07/30 03:54:17;;;;;;;22.30;20.10;;;;;;;;;;5034077;28;20470;-69
2021/07/30 03:56:44;;;;;;;20.10;18.70;;;;;;;;;;5052781;28;20472;-70
2021/07/30 03:59:13;;;;;;;20.80;19.40;;;;;;;;;;5054483;28;20469;-69
2021/07/30 04:01:47;;;;;;;20.70;19.50;;;;;;;;;;5052843;28;20452;-69
2021/07/30 04:04:14;;;;;;;20.60;19.30;;;;;;;;;;5052779;28;20448;-69
2021/07/30 04:06:41;;;;;;;20.83;19.63;;;;;;;;;;5052618;28;20478;-69
2021/07/30 04:09:10;;;;;;;20.97;19.50;;;;;;;;;;5045268;28;20459;-69
2021/07/30 04:11:37;;;;;;;22.07;20.43;;;;;;;;;;5050107;28;20483;-69
2021/07/30 04:14:05;;;;;;;20.93;19.73;;;;;;;;;;5052389;28;20448;-69
2021/07/30 04:16:34;;;;;;;20.97;19.77;;;;;;;;;;5035925;28;20542;-69
2021/07/30 04:19:01;;;;;;;21.93;20.40;;;;;;;;;;5038728;28;21002;-69
2021/07/30 04:21:28;;;;;;;21.37;20.07;;;;;;;;;;5051507;28;20448;-70
2021/07/30 04:23:55;;;;;;;20.57;19.33;;;;;;;;;;5051592;28;20456;-69
2021/07/30 04:26:22;;;;;;;21.37;20.17;;;;;;;;;;5051592;28;20476;-69
2021/07/30 04:28:49;;;;;;;21.40;19.80;;;;;;;;;;5032249;28;20475;-69
2021/07/30 04:31:17;;;;;;;21.90;20.60;;;;;;;;;;5044025;28;20490;-70
2021/07/30 04:33:45;;;;;;;22.77;20.37;;;;;;;;;;5051775;28;20448;-70
2021/07/30 04:36:15;;;;;;;22.27;20.40;;;;;;;;;;5041585;28;20475;-70
2021/07/30 04:38:43;;;;;;;21.80;20.50;;;;;;;;;;5032930;28;20463;-70
2021/07/30 04:41:10;;;;;;;21.03;19.70;;;;;;;;;;5048397;28;20458;-69
2021/07/30 04:43:37;;;;;;;20.57;19.17;;;;;;;;;;5043074;28;20451;-69
2021/07/30 04:46:04;;;;;;;21.80;20.00;;;;;;;;;;5048022;28;20483;-69
2021/07/30 04:48:32;;;;;;;21.00;19.70;;;;;;;;;;5055538;28;20454;-69
2021/07/30 04:51:02;;;;;;;20.80;19.40;;;;;;;;;;5054667;28;20494;-69
2021/07/30 04:53:29;;;;;;;21.17;19.97;;;;;;;;;;5047485;28;20440;-70
2021/07/30 04:55:56;;;;;;;21.60;20.20;;;;;;;;;;5055015;28;20458;-69
2021/07/30 04:58:24;;;;;;;21.37;20.07;;;;;;;;;;5055417;28;21013;-70
2021/07/30 05:00:51;;;;;;;22.37;21.07;;;;;;;;;;5055696;28;20448;-69
2021/07/30 05:03:18;;;;;;;21.47;20.27;;;;;;;;;;5055894;28;20452;-70
2021/07/30 05:05:45;;;;;;;22.20;20.87;;;;;;;;;;5054860;28;20797;-70
2021/07/30 05:08:13;;;;;;;23.17;21.57;;;;;;;;;;5055518;28;20456;-70
2021/07/30 05:10:40;;;;;;;22.57;21.20;;;;;;;;;;5050837;28;20452;-70
2021/07/30 05:13:07;;;;;;;21.27;19.77;;;;;;;;;;5035679;28;20484;-70
2021/07/30 05:15:34;;;;;;;22.57;20.83;;;;;;;;;;5047683;28;20454;-70
2021/07/30 05:18:02;;;;;;;31.03;29.27;;;;;;;;;;5055367;28;20479;-70
2021/07/30 05:20:29;;;;;;;22.00;20.27;;;;;;;;;;5050142;28;20551;-69
2021/07/30 05:22:56;;;;;;;22.67;20.87;;;;;;;;;;5049791;28;20823;-69
2021/07/30 05:25:24;;;;;;;21.73;20.30;;;;;;;;;;5053640;28;20458;-69
2021/07/30 05:27:51;;;;;;;23.20;21.60;;;;;;;;;;5054429;28;21028;-69
2021/07/30 05:30:18;;;;;;;22.73;21.30;;;;;;;;;;5054235;28;20451;-70
2021/07/30 05:32:46;;;;;;;23.10;21.37;;;;;;;;;;5055258;28;20491;-69
2021/07/30 05:35:13;;;;;;;21.17;19.83;;;;;;;;;;5054221;28;20977;-69
2021/07/30 05:37:40;;;;;;;21.43;20.17;;;;;;;;;;5035306;28;20469;-69
2021/07/30 05:40:08;;;;;;;22.93;21.50;;;;;;;;;;5052583;28;20478;-69
2021/07/30 05:42:36;;;;;;;21.90;20.40;;;;;;;;;;5053634;28;20444;-69
2021/07/30 05:45:04;;;;;;;22.50;21.10;;;;;;;;;;5054653;28;20820;-69
2021/07/30 05:47:31;;;;;;;22.00;20.63;;;;;;;;;;5053673;28;20479;-70
2021/07/30 05:49:58;;;;;;;22.53;21.03;;;;;;;;;;5042299;28;20459;-69
2021/07/30 05:52:25;;;;;;;21.13;19.93;;;;;;;;;;5048520;28;20483;-69
2021/07/30 05:54:52;;;;;;;21.20;19.60;;;;;;;;;;5050345;28;20451;-69
2021/07/30 05:57:19;;;;;;;22.53;20.67;;;;;;;;;;5045050;28;20480;-69
2021/07/30 05:59:48;;;;;;;20.90;19.40;;;;;;;;;;5054244;28;20953;-69
2021/07/30 06:02:15;;;;;;;21.53;19.97;;;;;;;;;;5054271;28;20476;-69
2021/07/30 06:04:42;;;;;;;21.83;20.57;;;;;;;;;;5054540;28;20458;-69
2021/07/30 06:07:09;;;;;;;22.60;21.10;;;;;;;;;;5054332;28;20468;-69
2021/07/30 06:09:36;;;;;;;23.70;22.10;;;;;;;;;;5054344;28;20452;-69
2021/07/30 06:12:04;;;;;;;23.60;22.00;;;;;;;;;;5053205;28;20482;-70
2021/07/30 06:14:31;;;;;;;20.73;19.43;;;;;;;;;;5042493;28;20518;-69
2021/07/30 06:19:27;;;;;;;21.40;20.23;;;;;;;;;;5020963;28;20479;-64
2021/07/30 06:21:55;;;;;;;24.57;23.17;;;;;;;;;;5032539;28;20451;-64
2021/07/30 06:24:22;;;;;;;23.90;22.50;;;;;;;;;;5032907;28;20455;-64
2021/07/30 06:26:49;;;;;;;24.90;23.30;;;;;;;;;;5031738;28;20459;-63
2021/07/30 06:29:16;;;;;;;25.00;23.30;;;;;;;;;;5033233;28;20473;-63
2021/07/30 06:31:43;;;;;;;24.50;23.00;;;;;;;;;;5031904;28;20488;-64
2021/07/30 06:34:10;;;;;;;25.30;23.13;;;;;;;;;;5032187;28;20548;-64
2021/07/30 06:36:39;;;;;;;24.13;22.63;;;;;;;;;;5032406;28;20456;-64
2021/07/30 06:39:06;;;;;;;23.57;22.07;;;;;;;;;;5032135;28;20483;-64
2021/07/30 06:41:33;;;;;;;23.57;22.10;;;;;;;;;;5031577;28;20441;-64
2021/07/30 06:44:00;;;;;;;23.27;21.77;;;;;;;;;;5013075;28;20450;-64
2021/07/30 06:46:27;;;;;;;24.97;23.40;;;;;;;;;;5026809;28;20449;-64
2021/07/30 06:48:54;;;;;;;24.10;22.73;;;;;;;;;;5032148;28;20472;-63
2021/07/30 06:51:21;;;;;;;24.33;22.73;;;;;;;;;;5031816;28;20448;-63
2021/07/30 06:53:50;;;;;;;24.33;22.83;;;;;;;;;;5032769;28;20453;-63
2021/07/30 06:56:18;;;;;;;23.70;22.30;;;;;;;;;;5030249;28;20474;-63
2021/07/30 06:58:46;;;;;;;24.90;23.40;;;;;;;;;;5029852;28;20486;-65
2021/07/30 07:01:13;;;;;;;25.93;24.20;;;;;;;;;;5036309;28;20860;-65
2021/07/30 07:03:40;;;;;;;23.97;22.33;;;;;;;;;;5036943;28;20436;-65
2021/07/30 07:06:08;;;;;;;27.13;25.13;;;;;;;;;;5043671;28;20457;-64
2021/07/30 07:08:35;;;;;;;26.03;24.07;;;;;;;;;;5036713;28;20835;-63
2021/07/30 07:11:05;;;;;;;25.97;24.37;;;;;;;;;;5032779;28;20535;-62
2021/07/30 07:13:32;;;;;;;24.20;22.70;;;;;;;;;;5032405;28;20485;-63
2021/07/30 07:15:59;;;;;;;25.97;24.27;;;;;;;;;;5033149;28;20462;-63
2021/07/30 07:18:26;;;;;;;24.37;22.87;;;;;;;;;;5032274;28;20504;-63
2021/07/30 07:20:57;;;;;;;24.90;23.30;;;;;;;;;;5031518;28;20463;-63
2021/07/30 07:23:24;;;;;;;25.13;23.30;;;;;;;;;;5031878;28;20452;-62
2021/07/30 07:25:51;;;;;;;24.30;22.80;;;;;;;;;;5031887;28;20449;-63
2021/07/30 07:28:19;;;;;;;24.43;22.90;;;;;;;;;;5031324;28;20472;-63
2021/07/30 07:30:47;;;;;;;24.00;22.50;;;;;;;;;;5026693;28;21011;-62
2021/07/30 07:33:14;;;;;;;24.27;22.77;;;;;;;;;;5025206;28;20522;-63
2021/07/30 07:35:41;;;;;;;25.30;23.73;;;;;;;;;;5031463;28;20978;-63
2021/07/30 07:38:08;;;;;;;24.40;22.60;;;;;;;;;;5031373;28;20472;-63
2021/07/30 07:40:35;;;;;;;23.53;21.90;;;;;;;;;;5026924;28;20492;-63
2021/07/30 07:43:03;;;;;;;25.43;23.83;;;;;;;;;;5031675;28;20455;-63
2021/07/30 07:45:31;;;;;;;25.13;23.50;;;;;;;;;;5031489;28;20453;-63
2021/07/30 07:47:58;;;;;;;25.33;23.37;;;;;;;;;;5029444;28;20484;-63
2021/07/30 07:50:25;;;;;;;23.80;22.30;;;;;;;;;;5031534;28;20449;-63
2021/07/30 07:52:52;;;;;;;24.50;23.00;;;;;;;;;;5031190;28;20488;-63
2021/07/30 07:55:20;;;;;;;25.20;23.40;;;;;;;;;;5030218;28;20465;-63
2021/07/30 07:57:47;;;;;;;24.73;23.13;;;;;;;;;;5029289;28;21000;-63
2021/07/30 08:00:14;;;;;;;25.10;23.50;;;;;;;;;;5029917;28;20475;-64
2021/07/30 08:02:43;;;;;;;27.20;25.30;;;;;;;;;;5031322;28;20477;-62
2021/07/30 08:05:10;;;;;;;27.23;25.43;;;;;;;;;;5030500;28;20468;-63
2021/07/30 08:07:37;;;;;;;22.33;20.70;;;;;;;;;;5030968;28;20845;-63
2021/07/30 08:10:05;;;;;;;22.77;20.90;;;;;;;;;;5029559;28;20850;-61
2021/07/30 08:12:33;;;;;;;22.77;21.10;;;;;;;;;;5030825;28;20875;-61
2021/07/30 08:15:00;;;;;;;22.20;20.80;;;;;;;;;;5033884;28;20951;-61
2021/07/30 08:17:27;;;;;;;21.33;20.03;;;;;;;;;;5032706;28;20503;-61
2021/07/30 08:19:55;;;;;;;23.37;21.97;;;;;;;;;;5034078;28;20471;-61
2021/07/30 08:22:22;;;;;;;22.20;20.90;;;;;;;;;;5032845;28;20468;-61
2021/07/30 08:24:49;;;;;;;23.90;22.50;;;;;;;;;;5034032;28;20837;-61
2021/07/30 08:27:17;;;;;;;22.00;20.50;;;;;;;;;;5033439;28;20496;-61
2021/07/30 08:29:44;;;;;;;24.07;21.60;;;;;;;;;;5034968;28;20461;-60
2021/07/30 08:32:11;;;;;;;21.93;20.10;;;;;;;;;;5032542;28;20484;-61
2021/07/30 08:34:39;;;;;;;24.00;22.13;;;;;;;;;;5034556;28;20479;-64
2021/07/30 08:37:08;;;;;;;24.77;22.90;;;;;;;;;;5033768;28;20475;-65
2021/07/30 08:39:35;;;;;;;21.87;19.93;;;;;;;;;;5035218;28;20966;-65
2021/07/30 08:42:03;;;;;;;22.30;20.60;;;;;;;;;;5032377;28;20491;-64
2021/07/30 08:44:30;;;;;;;22.77;21.10;;;;;;;;;;5034617;28;20455;-65
2021/07/30 08:46:58;;;;;;;21.90;20.50;;;;;;;;;;5030938;28;20470;-65
2021/07/30 08:49:26;;;;;;;21.97;20.13;;;;;;;;;;5033174;28;20460;-64
2021/07/30 08:51:58;;;;;;;20.50;19.10;;;;;;;;;;5033066;28;20473;-64
2021/07/30 08:54:26;;;;;;;21.10;19.73;;;;;;;;;;5032912;28;20472;-63
2021/07/30 08:56:53;;;;;;;21.03;19.73;;;;;;;;;;5033778;28;20453;-64
2021/07/30 08:59:22;;;;;;;21.63;20.13;;;;;;;;;;5034049;28;20982;-63
2021/07/30 09:01:53;;;;;;;20.87;19.67;;;;;;;;;;5030893;28;21010;-64
2021/07/30 09:04:27;;;;;;;19.83;18.63;;;;;;;;;;5033265;28;20897;-64
2021/07/30 09:06:55;;;;;;;20.20;19.10;;;;;;;;;;5029186;28;20449;-63
2021/07/30 09:09:22;;;;;;;21.57;20.10;;;;;;;;;;5032389;28;20534;-64
2021/07/30 09:11:53;;;;;;;20.30;19.07;;;;;;;;;;5031486;28;20473;-63
2021/07/30 09:14:32;;;;;;;20.00;18.80;;;;;;;;;;5032800;28;20484;-64
2021/07/30 09:16:59;;;;;;;20.13;18.93;;;;;;;;;;5029066;28;20468;-63
2021/07/30 09:19:26;;;;;;;19.50;18.50;;;;;;;;;;5030274;28;20824;-63
2021/07/30 09:22:02;;;;;;;19.97;18.67;;;;;;;;;;5033398;28;20457;-63
2021/07/30 09:24:34;;;;;;;19.53;18.30;;;;;;;;;;5033658;28;20474;-63
2021/07/30 09:27:02;;;;;;;20.07;18.73;;;;;;;;;;5033421;28;20955;-63
2021/07/30 09:29:32;;;;;;;18.80;17.70;;;;;;;;;;5033101;28;20967;-64
2021/07/30 09:31:59;;;;;;;19.17;18.07;;;;;;;;;;5031965;28;20456;-63
2021/07/30 09:34:27;;;;;;;20.33;19.10;;;;;;;;;;5034140;28;20498;-64
2021/07/30 09:36:59;;;;;;;20.20;19.20;;;;;;;;;;5030295;28;20473;-65
2021/07/30 09:39:27;;;;;;;20.00;18.80;;;;;;;;;;5014315;28;20941;-63
2021/07/30 09:41:55;;;;;;;19.80;18.70;;;;;;;;;;5018530;28;20468;-65
2021/07/30 09:44:24;;;;;;;19.70;18.63;;;;;;;;;;5032960;28;20465;-63
2021/07/30 09:47:08;;;;;;;19.30;18.20;;;;;;;;;;5032458;28;21051;-66
2021/07/30 09:49:43;;;;;;;19.90;18.80;;;;;;;;;;5031313;28;20819;-64
2021/07/30 09:52:12;;;;;;;18.83;17.80;;;;;;;;;;5033231;28;20448;-63
2021/07/30 09:54:43;;;;;;;19.73;18.63;;;;;;;;;;5032098;28;20464;-64
2021/07/30 09:57:11;;;;;;;19.80;18.70;;;;;;;;;;5032555;28;20466;-64
2021/07/30 09:59:42;;;;;;;19.83;18.10;;;;;;;;;;5028937;28;20467;-64
2021/07/30 10:02:12;;;;;;;19.00;17.97;;;;;;;;;;5053407;28;20452;-64
2021/07/30 10:04:40;;;;;;;19.17;18.10;;;;;;;;;;5045631;28;20837;-63
2021/07/30 10:07:07;;;;;;;18.57;17.67;;;;;;;;;;5028964;28;20491;-64
2021/07/30 10:09:35;;;;;;;19.17;18.07;;;;;;;;;;5029200;28;20487;-64
2021/07/30 10:12:02;;;;;;;18.93;17.83;;;;;;;;;;5029588;28;20982;-64
2021/07/30 10:14:30;;;;;;;18.30;17.33;;;;;;;;;;5032635;28;20484;-64
2021/07/30 10:17:01;;;;;;;19.10;17.90;;;;;;;;;;5032959;28;20479;-64
2021/07/30 10:19:29;;;;;;;18.40;17.40;;;;;;;;;;5032007;28;20448;-65
2021/07/30 10:21:59;;;;;;;18.40;17.30;;;;;;;;;;5032997;28;20459;-64
2021/07/30 10:24:28;;;;;;;19.20;17.87;;;;;;;;;;5032152;28;21006;-65
2021/07/30 10:26:55;;;;;;;19.00;18.00;;;;;;;;;;5031326;28;20464;-65
2021/07/30 10:29:22;;;;;;;19.30;18.30;;;;;;;;;;5033123;28;20455;-65
2021/07/30 10:31:50;;;;;;;18.90;17.90;;;;;;;;;;5027079;28;20471;-65
2021/07/30 10:34:19;;;;;;;19.47;18.37;;;;;;;;;;5013544;28;20492;-65
2021/07/30 10:36:46;;;;;;;18.80;17.80;;;;;;;;;;5029935;28;20451;-64
2021/07/30 10:39:16;;;;;;;18.07;17.00;;;;;;;;;;5033015;28;20469;-65
2021/07/30 10:42:03;;;;;;;18.93;17.73;;;;;;;;;;5031452;28;20480;-65
2021/07/30 10:44:30;;;;;;;19.00;17.80;;;;;;;;;;5032536;28;20448;-65
2021/07/30 10:47:12;;;;;;;19.60;18.43;;;;;;;;;;5031961;28;20475;-65
2021/07/30 10:49:44;;;;;;;19.17;17.93;;;;;;;;;;5012905;28;20449;-64
2021/07/30 10:52:27;;;;;;;22.23;20.67;;;;;;;;;;5022760;28;21908;-65
2021/07/30 10:54:54;;;;;;;21.33;20.10;;;;;;;;;;5032221;28;20492;-64
2021/07/30 10:57:40;;;;;;;21.17;20.07;;;;;;;;;;5031747;28;20483;-65
2021/07/30 11:00:08;;;;;;;20.93;19.73;;;;;;;;;;5032244;28;20463;-65
2021/07/30 11:02:50;;;;;;;20.33;19.23;;;;;;;;;;5031887;28;20455;-65
2021/07/30 11:05:18;;;;;;;21.13;19.90;;;;;;;;;;5031024;28;20451;-65
2021/07/30 11:07:45;;;;;;;21.03;19.93;;;;;;;;;;5032257;28;20464;-65
2021/07/30 11:10:17;;;;;;;19.93;18.73;;;;;;;;;;5031922;28;20966;-64
2021/07/30 11:12:44;;;;;;;19.83;18.73;;;;;;;;;;5024622;28;20452;-65
2021/07/30 11:15:11;;;;;;;18.20;17.30;;;;;;;;;;5031740;28;20808;-65
2021/07/30 11:17:38;;;;;;;19.50;18.43;;;;;;;;;;5031876;28;20484;-65
2021/07/30 11:20:06;;;;;;;19.43;18.43;;;;;;;;;;5031427;28;20461;-64
2021/07/30 11:22:39;;;;;;;20.53;19.33;;;;;;;;;;5031343;28;20453;-64
2021/07/30 11:25:06;;;;;;;19.70;18.70;;;;;;;;;;5031920;28;20499;-64
2021/07/30 11:27:33;;;;;;;18.97;17.87;;;;;;;;;;5031519;28;21018;-64
2021/07/30 11:30:00;;;;;;;19.93;18.83;;;;;;;;;;5032006;28;20449;-64
2021/07/30 11:32:29;;;;;;;19.53;18.43;;;;;;;;;;5030971;28;20956;-64
2021/07/30 11:34:57;;;;;;;21.00;19.73;;;;;;;;;;5031551;28;20591;-64
2021/07/30 11:37:25;;;;;;;22.80;21.17;;;;;;;;;;5031545;28;20477;-63
2021/07/30 11:39:54;;;;;;;21.30;20.10;;;;;;;;;;5031988;28;20449;-64
2021/07/30 11:42:26;;;;;;;21.70;20.60;;;;;;;;;;5031048;28;20449;-63
2021/07/30 11:44:55;;;;;;;21.43;20.33;;;;;;;;;;5031588;28;20448;-64
2021/07/30 11:47:22;;;;;;;21.70;20.60;;;;;;;;;;5026833;28;20975;-64
2021/07/30 11:49:50;;;;;;;21.83;20.63;;;;;;;;;;5030915;28;20451;-64
2021/07/30 11:52:20;;;;;;;21.43;20.27;;;;;;;;;;5031367;28;20448;-64
2021/07/30 11:54:48;;;;;;;18.13;17.23;;;;;;;;;;5031329;28;20488;-64
2021/07/30 11:57:27;;;;;;;19.77;18.40;;;;;;;;;;5031659;28;20522;-63
2021/07/30 11:59:54;;;;;;;18.80;17.70;;;;;;;;;;5029419;28;20456;-63
2021/07/30 12:02:21;;;;;;;19.97;18.87;;;;;;;;;;5031403;28;20802;-64
2021/07/30 12:04:53;;;;;;;19.17;18.17;;;;;;;;;;5039120;28;20463;-66
2021/07/30 12:07:22;;;;;;;19.60;18.60;;;;;;;;;;5038544;28;20522;-66
2021/07/30 12:09:51;;;;;;;19.77;18.80;;;;;;;;;;5034441;28;20510;-68
2021/07/30 12:12:19;;;;;;;19.23;18.23;;;;;;;;;;5031459;28;20448;-66
2021/07/30 12:14:50;;;;;;;20.70;19.60;;;;;;;;;;5029785;28;20525;-65
2021/07/30 12:17:18;;;;;;;20.10;19.00;;;;;;;;;;5026923;28;20491;-66
2021/07/30 12:19:56;;;;;;;19.43;18.40;;;;;;;;;;5052906;22;20510;-68
2021/07/30 12:22:33;;;;;;;19.20;18.20;;;;;;;;;;5045795;28;20474;-69
2021/07/30 12:25:01;;;;;;;19.60;18.70;;;;;;;;;;5054842;28;20466;-68
2021/07/30 12:27:28;;;;;;;19.67;18.40;;;;;;;;;;5051962;28;20444;-69
2021/07/30 12:29:56;;;;;;;18.50;17.57;;;;;;;;;;5065683;28;20985;-69
2021/07/30 12:32:25;;;;;;;18.90;17.90;;;;;;;;;;5070621;28;20457;-67
2021/07/30 12:34:56;;;;;;;18.73;17.73;;;;;;;;;;5068599;28;21000;-68
2021/07/30 12:37:23;;;;;;;19.17;17.93;;;;;;;;;;5071496;28;20446;-68
2021/07/30 12:39:51;;;;;;;19.30;18.20;;;;;;;;;;5059329;28;20493;-70
2021/07/30 12:42:19;;;;;;;18.80;17.70;;;;;;;;;;5061428;28;20455;-70
2021/07/30 12:45:08;;;;;;;18.67;17.70;;;;;;;;;;5050696;28;20440;-70
2021/07/30 12:47:36;;;;;;;18.27;17.17;;;;;;;;;;5051034;28;20455;-69
2021/07/30 12:50:18;;;;;;;18.13;16.97;;;;;;;;;;5050465;28;20504;-69
2021/07/30 12:53:00;;;;;;;18.40;17.30;;;;;;;;;;5051525;28;20455;-69
2021/07/30 12:55:27;;;;;;;18.07;17.13;;;;;;;;;;5053010;28;20512;-69
2021/07/30 12:57:55;;;;;;;18.57;17.57;;;;;;;;;;5058384;28;20557;-69
2021/07/30 13:00:33;;;;;;;18.50;17.40;;;;;;;;;;5050739;28;20471;-68
2021/07/30 13:03:00;;;;;;;18.47;17.43;;;;;;;;;;5058434;28;20447;-69
2021/07/30 13:05:30;;;;;;;17.50;16.53;;;;;;;;;;5062336;28;20447;-69
2021/07/30 13:07:57;;;;;;;17.63;16.67;;;;;;;;;;5064163;28;20516;-69
2021/07/30 13:10:24;;;;;;;20.20;18.83;;;;;;;;;;5063772;28;20489;-67
2021/07/30 13:12:53;;;;;;;20.30;19.17;;;;;;;;;;5063414;28;20453;-69
2021/07/30 13:15:20;;;;;;;20.87;19.77;;;;;;;;;;5073562;28;21046;-69
2021/07/30 13:17:49;;;;;;;21.00;19.90;;;;;;;;;;5074355;28;20451;-69
2021/07/30 13:20:16;;;;;;;21.03;19.70;;;;;;;;;;5073737;28;20483;-69
2021/07/30 13:22:43;;;;;;;20.93;19.83;;;;;;;;;;5062663;28;20458;-69
2021/07/30 13:25:10;;;;;;;20.50;19.50;;;;;;;;;;5053733;28;20973;-69
2021/07/30 13:27:37;;;;;;;20.87;19.67;;;;;;;;;;5060984;28;20758;-70
2021/07/30 13:30:05;;;;;;;20.60;19.50;;;;;;;;;;5053799;28;20982;-70
2021/07/30 13:32:32;;;;;;;20.60;19.40;;;;;;;;;;5053712;28;20448;-69
2021/07/30 13:35:01;;;;;;;20.30;19.20;;;;;;;;;;5053702;28;20860;-69
2021/07/30 13:37:28;;;;;;;21.20;20.10;;;;;;;;;;5072705;28;20447;-69
2021/07/30 13:39:55;;;;;;;20.70;19.63;;;;;;;;;;5073185;28;20479;-69
2021/07/30 13:42:22;;;;;;;20.87;19.57;;;;;;;;;;5063789;28;20798;-69
2021/07/30 13:44:53;;;;;;;21.53;20.03;;;;;;;;;;5053828;28;20440;-69
2021/07/30 13:47:20;;;;;;;20.87;19.70;;;;;;;;;;5053781;28;20972;-69
2021/07/30 13:49:48;;;;;;;20.70;19.40;;;;;;;;;;5053074;28;20479;-69
2021/07/30 13:52:16;;;;;;;21.27;19.90;;;;;;;;;;5053473;28;20444;-69
2021/07/30 13:54:43;;;;;;;21.23;20.00;;;;;;;;;;5053171;28;20487;-69
2021/07/30 13:57:10;;;;;;;20.70;19.60;;;;;;;;;;5067891;28;20458;-69
2021/07/30 13:59:38;;;;;;;21.70;20.50;;;;;;;;;;5074108;28;20462;-69
2021/07/30 14:02:05;;;;;;;22.00;20.87;;;;;;;;;;5069422;28;20458;-69
2021/07/30 14:04:35;;;;;;;21.27;20.17;;;;;;;;;;5054968;28;20531;-69
2021/07/30 14:07:03;;;;;;;20.50;19.50;;;;;;;;;;5061147;28;20568;-69
2021/07/30 14:09:33;;;;;;;20.70;19.50;;;;;;;;;;5073183;28;20962;-69
2021/07/30 14:12:00;;;;;;;21.60;20.30;;;;;;;;;;5057099;28;20448;-69
2021/07/30 14:14:27;;;;;;;20.40;19.30;;;;;;;;;;5053687;28;20480;-69
2021/07/30 14:16:54;;;;;;;20.60;19.60;;;;;;;;;;5060856;28;20459;-69
2021/07/30 14:19:21;;;;;;;21.53;20.33;;;;;;;;;;5069078;28;20444;-69
2021/07/30 14:21:49;;;;;;;22.00;20.80;;;;;;;;;;5053451;28;20451;-69
2021/07/30 14:24:16;;;;;;;20.20;19.20;;;;;;;;;;5053270;28;20530;-69
2021/07/30 14:26:44;;;;;;;21.33;20.13;;;;;;;;;;5053669;28;20444;-69